createdAt,value
2022-11-09T00:01:40.626Z,17.97
2022-11-09T00:04:27.783Z,17.93
2022-11-09T00:07:15.159Z,17.92
2022-11-09T00:10:02.519Z,17.92
2022-11-09T00:12:51.011Z,17.89
2022-11-09T00:15:37.845Z,17.87
2022-11-09T00:18:24.426Z,17.86
2022-11-09T00:21:14.403Z,17.83
2022-11-09T00:24:01.043Z,17.83
2022-11-09T00:26:48.306Z,17.79
2022-11-09T00:29:36.540Z,17.78
2022-11-09T00:32:27.625Z,17.80
2022-11-09T00:35:14.855Z,17.76
2022-11-09T00:38:01.996Z,17.71
2022-11-09T00:40:48.891Z,17.70
2022-11-09T00:43:36.660Z,17.71
2022-11-09T00:46:25.449Z,17.65
2022-11-09T00:49:12.596Z,17.63
2022-11-09T00:51:59.510Z,17.61
2022-11-09T00:54:47.010Z,17.59
2022-11-09T00:57:33.867Z,17.58
2022-11-09T01:00:23.517Z,17.59
2022-11-09T01:03:11.484Z,17.61
2022-11-09T01:06:00.660Z,17.64
2022-11-09T01:08:48.469Z,17.60
2022-11-09T01:11:36.316Z,17.62
2022-11-09T01:14:23.428Z,17.64
2022-11-09T01:17:10.527Z,17.66
2022-11-09T01:19:58.884Z,17.66
2022-11-09T01:22:46.207Z,17.63
2022-11-09T01:25:33.002Z,17.68
2022-11-09T01:28:20.656Z,17.68
2022-11-09T01:31:12.120Z,17.69
2022-11-09T01:33:58.932Z,17.68
2022-11-09T01:36:51.293Z,17.74
2022-11-09T01:39:41.959Z,17.75
2022-11-09T01:42:30.319Z,17.77
2022-11-09T01:45:26.717Z,17.78
2022-11-09T01:48:20.265Z,17.79
2022-11-09T01:51:14.081Z,17.79
2022-11-09T01:54:10.067Z,17.80
2022-11-09T01:57:03.921Z,17.79
2022-11-09T01:59:57.891Z,17.79
2022-11-09T02:02:49.196Z,17.80
2022-11-09T02:05:39.182Z,17.77
2022-11-09T02:08:27.224Z,17.74
2022-11-09T02:11:18.838Z,17.75
2022-11-09T02:14:06.777Z,17.76
2022-11-09T02:16:53.944Z,17.78
2022-11-09T02:19:40.709Z,17.79
2022-11-09T02:22:29.211Z,17.79
2022-11-09T02:25:17.232Z,17.80
2022-11-09T02:28:04.852Z,17.76
2022-11-09T02:30:54.642Z,17.78
2022-11-09T02:33:45.312Z,17.83
2022-11-09T02:36:32.240Z,17.90
2022-11-09T02:39:24.775Z,17.93
2022-11-09T02:42:21.151Z,17.97
2022-11-09T02:45:11.076Z,18.04
2022-11-09T02:47:59.056Z,18.13
2022-11-09T02:50:46.166Z,18.20
2022-11-09T02:53:33.040Z,18.21
2022-11-09T02:56:22.459Z,18.23
2022-11-09T02:59:09.255Z,18.17
2022-11-09T03:01:56.471Z,18.20
2022-11-09T03:04:43.380Z,18.18
2022-11-09T03:07:30.709Z,18.17
2022-11-09T03:10:18.134Z,18.18
2022-11-09T03:13:08.007Z,18.18
2022-11-09T03:15:54.814Z,18.17
2022-11-09T03:18:42.144Z,18.18
2022-11-09T03:21:30.100Z,18.14
2022-11-09T03:24:17.206Z,18.18
2022-11-09T03:27:03.904Z,18.17
2022-11-09T03:29:52.456Z,18.19
2022-11-09T03:32:40.168Z,18.20
2022-11-09T03:35:28.099Z,18.19
2022-11-09T03:38:15.359Z,18.13
2022-11-09T03:41:03.397Z,18.10
2022-11-09T03:43:51.327Z,18.04
2022-11-09T03:46:40.101Z,18.04
2022-11-09T03:49:27.088Z,18.00
2022-11-09T03:52:14.217Z,17.94
2022-11-09T03:55:01.155Z,17.94
2022-11-09T03:57:49.159Z,17.91
2022-11-09T04:00:36.889Z,17.88
2022-11-09T04:03:25.854Z,17.87
2022-11-09T04:06:12.544Z,17.83
2022-11-09T04:08:59.727Z,17.80
2022-11-09T04:11:46.533Z,17.78
2022-11-09T04:14:33.675Z,17.76
2022-11-09T04:17:20.545Z,17.74
2022-11-09T04:20:10.427Z,17.75
2022-11-09T04:22:57.834Z,17.74
2022-11-09T04:25:44.873Z,17.78
2022-11-09T04:28:38.018Z,17.80
2022-11-09T04:31:28.209Z,17.84
2022-11-09T04:34:17.057Z,17.87
2022-11-09T04:37:05.896Z,17.89
2022-11-09T04:39:53.022Z,17.87
2022-11-09T04:42:40.547Z,17.85
2022-11-09T04:45:27.676Z,17.84
2022-11-09T04:48:14.835Z,17.82
2022-11-09T04:51:02.356Z,17.84
2022-11-09T04:53:50.964Z,17.81
2022-11-09T04:56:37.720Z,17.86
2022-11-09T04:59:25.061Z,17.91
2022-11-09T05:02:11.846Z,17.94
2022-11-09T05:04:59.164Z,17.99
2022-11-09T05:07:45.861Z,18.00
2022-11-09T05:10:34.720Z,17.99
2022-11-09T05:13:21.956Z,18.02
2022-11-09T05:16:09.443Z,18.01
2022-11-09T05:18:56.338Z,18.07
2022-11-09T05:21:43.549Z,18.08
2022-11-09T05:24:29.404Z,18.09
2022-11-09T05:27:17.765Z,18.09
2022-11-09T05:30:05.501Z,18.02
2022-11-09T05:32:52.716Z,18.07
2022-11-09T05:35:39.767Z,18.04
2022-11-09T05:38:27.141Z,18.02
2022-11-09T05:41:14.364Z,18.00
2022-11-09T05:44:02.840Z,18.02
2022-11-09T05:46:50.249Z,18.01
2022-11-09T05:49:37.632Z,18.01
2022-11-09T05:52:24.340Z,18.04
2022-11-09T05:55:11.166Z,18.05
2022-11-09T05:57:57.954Z,18.09
2022-11-09T06:00:46.220Z,18.08
2022-11-09T06:03:34.063Z,18.12
2022-11-09T06:06:21.022Z,18.19
2022-11-09T06:09:08.433Z,18.08
2022-11-09T06:11:55.156Z,18.08
2022-11-09T06:14:42.250Z,18.08
2022-11-09T06:17:30.275Z,18.06
2022-11-09T06:20:18.952Z,18.11
2022-11-09T06:23:05.765Z,18.09
2022-11-09T06:25:54.096Z,18.09
2022-11-09T06:28:42.344Z,18.15
2022-11-09T06:31:30.226Z,18.15
2022-11-09T06:34:18.789Z,18.15
2022-11-09T06:37:06.152Z,18.16
2022-11-09T06:39:52.984Z,18.19
2022-11-09T06:42:40.050Z,18.15
2022-11-09T06:45:28.542Z,18.12
2022-11-09T06:48:15.768Z,18.02
2022-11-09T06:51:05.145Z,17.96
2022-11-09T06:53:52.470Z,18.00
2022-11-09T06:56:39.153Z,18.02
2022-11-09T06:59:26.521Z,18.02
2022-11-09T07:02:17.668Z,18.13
2022-11-09T07:05:05.553Z,18.08
2022-11-09T07:07:53.958Z,18.13
2022-11-09T07:10:41.172Z,18.04
2022-11-09T07:13:28.357Z,18.07
2022-11-09T07:16:17.335Z,18.16
2022-11-09T07:19:04.194Z,18.13
2022-11-09T07:21:51.016Z,18.16
2022-11-09T07:24:39.242Z,18.18
2022-11-09T07:27:28.213Z,18.17
2022-11-09T07:30:15.617Z,18.17
2022-11-09T07:33:09.065Z,18.23
2022-11-09T07:35:58.650Z,18.20
2022-11-09T07:38:45.762Z,18.17
2022-11-09T07:41:34.994Z,18.21
2022-11-09T07:44:22.654Z,18.22
2022-11-09T07:47:11.305Z,18.24
2022-11-09T07:50:00.548Z,18.26
2022-11-09T07:52:47.399Z,18.28
2022-11-09T07:55:35.580Z,18.28
2022-11-09T07:58:23.510Z,18.29
2022-11-09T08:01:11.357Z,18.31
2022-11-09T08:03:58.499Z,18.35
2022-11-09T08:06:45.722Z,18.39
2022-11-09T08:09:32.900Z,18.42
2022-11-09T08:12:19.745Z,18.48
2022-11-09T08:15:09.365Z,18.48
2022-11-09T08:18:00.862Z,18.47
2022-11-09T08:20:48.619Z,18.44
2022-11-09T08:23:35.998Z,18.50
2022-11-09T08:26:22.911Z,18.58
2022-11-09T08:29:09.917Z,18.60
2022-11-09T08:31:58.468Z,18.63
2022-11-09T08:34:48.549Z,18.61
2022-11-09T08:37:35.870Z,18.62
2022-11-09T08:40:25.750Z,18.71
2022-11-09T08:43:13.391Z,18.74
2022-11-09T08:46:00.595Z,18.70
2022-11-09T08:48:49.023Z,18.76
2022-11-09T08:51:35.885Z,18.89
2022-11-09T08:54:22.952Z,18.97
2022-11-09T08:57:10.545Z,19.08
2022-11-09T08:59:58.032Z,19.14
2022-11-09T09:02:44.869Z,19.16
2022-11-09T09:05:33.665Z,19.18
2022-11-09T09:08:23.242Z,19.23
2022-11-09T09:11:10.786Z,19.39
2022-11-09T09:13:57.918Z,19.42
2022-11-09T09:16:45.338Z,19.49
2022-11-09T09:19:32.345Z,19.49
2022-11-09T09:22:21.305Z,19.53
2022-11-09T09:25:09.466Z,19.41
2022-11-09T09:27:56.457Z,19.51
2022-11-09T09:30:43.398Z,19.58
2022-11-09T09:33:30.571Z,19.68
2022-11-09T09:36:18.745Z,19.71
2022-11-09T09:39:07.306Z,19.75
2022-11-09T09:41:57.286Z,19.71
2022-11-09T09:44:50.620Z,19.74
2022-11-09T09:47:51.059Z,19.78
2022-11-09T09:50:45.164Z,19.73
2022-11-09T09:53:35.150Z,19.83
2022-11-09T09:56:26.439Z,19.88
2022-11-09T09:59:21.440Z,20.05
2022-11-09T10:02:18.989Z,20.26
2022-11-09T10:05:10.093Z,20.35
2022-11-09T10:08:05.524Z,20.55
2022-11-09T10:11:05.726Z,20.58
2022-11-09T10:14:11.679Z,20.66
2022-11-09T10:17:07.888Z,20.86
2022-11-09T10:20:05.308Z,21.21
2022-11-09T10:23:05.090Z,21.40
2022-11-09T10:26:06.095Z,21.58
2022-11-09T10:29:15.598Z,21.70
2022-11-09T10:32:11.488Z,21.80
2022-11-09T10:35:04.810Z,21.91
2022-11-09T10:37:55.020Z,21.82
2022-11-09T10:40:46.653Z,21.80
2022-11-09T10:43:52.002Z,21.67
2022-11-09T10:47:08.719Z,21.70
2022-11-09T10:50:23.844Z,21.65
2022-11-09T10:57:04.911Z,21.68
2022-11-09T11:00:17.396Z,21.65
2022-11-09T11:03:25.470Z,21.74
2022-11-09T11:06:31.726Z,21.72
2022-11-09T11:09:37.377Z,21.64
2022-11-09T11:12:42.912Z,21.89
2022-11-09T11:15:48.963Z,22.11
2022-11-09T11:18:56.947Z,22.22
2022-11-09T11:22:23.990Z,22.29
2022-11-09T11:25:29.741Z,22.55
2022-11-09T11:28:43.856Z,22.83
2022-11-09T11:31:50.015Z,22.85
2022-11-09T11:35:01.312Z,22.73
2022-11-09T11:38:22.662Z,22.76
2022-11-09T11:41:47.929Z,22.74
2022-11-09T11:45:38.558Z,22.77
2022-11-09T11:49:11.601Z,22.79
2022-11-09T11:52:28.234Z,22.82
2022-11-09T11:55:52.862Z,22.78
2022-11-09T11:59:30.355Z,22.85
2022-11-09T12:03:08.303Z,23.04
2022-11-09T12:06:32.269Z,23.24
2022-11-09T12:10:04.198Z,23.45
2022-11-09T12:13:20.997Z,23.63
2022-11-09T12:16:34.313Z,23.76
2022-11-09T12:19:52.708Z,23.74
2022-11-09T12:23:27.151Z,23.77
2022-11-09T12:27:04.630Z,23.69
2022-11-09T12:30:17.587Z,23.64
2022-11-09T12:33:33.989Z,23.48
2022-11-09T12:36:47.424Z,23.63
2022-11-09T12:39:55.282Z,23.47
2022-11-09T12:43:06.801Z,23.77
2022-11-09T12:46:14.393Z,23.95
2022-11-09T12:49:33.540Z,24.05
2022-11-09T12:52:39.669Z,24.20
2022-11-09T12:55:51.452Z,24.36
2022-11-09T12:59:23.824Z,24.13
2022-11-09T13:02:32.318Z,24.22
2022-11-09T13:05:39.506Z,24.30
2022-11-09T13:09:01.190Z,24.02
2022-11-09T13:12:19.006Z,24.08
2022-11-09T13:15:28.658Z,23.80
2022-11-09T13:18:53.756Z,23.81
2022-11-09T13:21:59.133Z,23.50
2022-11-09T13:25:25.803Z,23.33
2022-11-09T13:29:11.451Z,23.14
2022-11-09T13:32:28.898Z,22.82
2022-11-09T13:36:14.429Z,23.17
2022-11-09T13:39:32.225Z,22.77
2022-11-09T13:42:38.037Z,22.58
2022-11-09T13:45:46.255Z,22.36
2022-11-09T13:48:54.276Z,22.33
2022-11-09T13:51:59.652Z,22.17
2022-11-09T13:55:15.510Z,22.33
2022-11-09T13:58:27.575Z,22.26
2022-11-09T14:01:38.396Z,22.27
2022-11-09T14:04:46.444Z,22.22
2022-11-09T14:07:51.688Z,22.08
2022-11-09T14:11:15.036Z,22.03
2022-11-09T14:14:54.725Z,21.91
2022-11-09T14:18:13.621Z,21.91
2022-11-09T14:21:41.377Z,22.00
2022-11-09T14:27:58.027Z,21.88
2022-11-09T14:31:03.375Z,21.79
2022-11-09T14:34:16.374Z,21.72
2022-11-09T14:37:23.377Z,21.69
2022-11-09T14:40:31.365Z,21.69
2022-11-09T14:43:41.740Z,21.59
2022-11-09T14:46:53.914Z,21.43
2022-11-09T14:50:00.349Z,21.37
2022-11-09T14:53:07.730Z,21.37
2022-11-09T14:56:17.462Z,21.29
2022-11-09T14:59:32.614Z,21.34
2022-11-09T15:02:39.336Z,21.30
2022-11-09T15:05:45.072Z,21.20
2022-11-09T15:08:58.342Z,21.07
2022-11-09T15:12:04.095Z,21.10
2022-11-09T15:15:21.430Z,21.03
2022-11-09T15:18:33.875Z,20.88
2022-11-09T15:21:39.699Z,20.93
2022-11-09T15:24:49.281Z,20.85
2022-11-09T15:28:20.530Z,20.77
2022-11-09T15:31:27.959Z,20.74
2022-11-09T15:34:38.553Z,20.59
2022-11-09T15:37:53.648Z,20.45
2022-11-09T15:41:01.129Z,20.41
2022-11-09T15:44:07.384Z,20.44
2022-11-09T15:47:23.001Z,20.39
2022-11-09T15:50:29.088Z,20.36
2022-11-09T15:53:34.731Z,20.36
2022-11-09T15:56:42.036Z,20.26
2022-11-09T15:59:48.371Z,20.22
2022-11-09T16:02:53.719Z,20.14
2022-11-09T16:05:59.413Z,20.07
2022-11-09T16:09:05.349Z,20.05
2022-11-09T16:12:12.141Z,20.02
2022-11-09T16:15:17.692Z,20.00
2022-11-09T16:18:26.174Z,19.93
2022-11-09T16:21:31.966Z,19.89
2022-11-09T16:24:37.327Z,19.85
2022-11-09T16:27:50.678Z,19.80
2022-11-09T16:30:57.174Z,19.74
2022-11-09T16:34:02.694Z,19.71
2022-11-09T16:37:08.150Z,19.66
2022-11-09T16:40:17.432Z,19.61
2022-11-09T16:43:24.492Z,19.56
2022-11-09T16:46:30.588Z,19.53
2022-11-09T16:49:36.088Z,19.46
2022-11-09T16:52:41.351Z,19.41
2022-11-09T16:55:46.656Z,19.35
2022-11-09T16:58:53.480Z,19.30
2022-11-09T17:02:00.684Z,19.24
2022-11-09T17:05:07.521Z,19.18
2022-11-09T17:08:13.767Z,19.14
2022-11-09T17:11:20.526Z,19.14
2022-11-09T17:14:29.237Z,19.05
2022-11-09T17:17:35.396Z,19.07
2022-11-09T17:20:44.654Z,19.07
2022-11-09T17:23:50.977Z,19.07
2022-11-09T17:26:56.404Z,19.10
2022-11-09T17:30:03.275Z,19.09
2022-11-09T17:33:09.372Z,19.06
2022-11-09T17:36:17.046Z,19.08
2022-11-09T17:39:28.105Z,19.07
2022-11-09T17:42:34.966Z,19.06
2022-11-09T17:45:42.028Z,19.04
2022-11-09T17:48:49.613Z,19.02
2022-11-09T17:51:55.559Z,19.00
2022-11-09T17:55:01.316Z,18.98
2022-11-09T17:58:06.959Z,18.95
2022-11-09T18:01:15.874Z,18.92
2022-11-09T18:04:21.805Z,18.90
2022-11-09T18:07:27.093Z,18.91
2022-11-09T18:10:32.627Z,18.91
2022-11-09T18:13:39.077Z,18.88
2022-11-09T18:16:46.097Z,18.84
2022-11-09T18:19:51.719Z,18.88
2022-11-09T18:22:57.243Z,18.88
2022-11-09T18:26:03.707Z,18.88
2022-11-09T18:29:12.181Z,18.88
2022-11-09T18:32:19.243Z,18.89
2022-11-09T18:35:25.040Z,18.91
2022-11-09T18:38:30.898Z,18.95
2022-11-09T18:41:36.590Z,18.94
2022-11-09T18:44:42.226Z,18.96
2022-11-09T18:47:50.793Z,19.01
2022-11-09T18:50:58.279Z,19.02
2022-11-09T18:54:04.024Z,19.02
2022-11-09T18:57:13.729Z,19.02
2022-11-09T19:00:21.963Z,19.01
2022-11-09T19:03:29.385Z,18.98
2022-11-09T19:06:36.801Z,18.93
2022-11-09T19:09:43.033Z,18.92
2022-11-09T19:12:48.468Z,18.88
2022-11-09T19:15:58.324Z,18.85
2022-11-09T19:19:06.762Z,18.83
2022-11-09T19:22:19.268Z,18.82
2022-11-09T19:25:25.390Z,18.82
2022-11-09T19:28:31.263Z,18.81
2022-11-09T19:31:38.426Z,18.80
2022-11-09T19:34:46.731Z,18.78
2022-11-09T19:37:52.369Z,18.76
2022-11-09T19:40:58.317Z,18.73
2022-11-09T19:44:03.607Z,18.71
2022-11-09T19:47:09.153Z,18.70
2022-11-09T19:50:16.437Z,18.71
2022-11-09T19:53:21.772Z,18.71
2022-11-09T19:56:29.357Z,18.71
2022-11-09T19:59:36.435Z,18.67
2022-11-09T20:02:44.492Z,18.63
2022-11-09T20:05:56.140Z,18.58
2022-11-09T20:09:01.754Z,18.53
2022-11-09T20:12:39.832Z,18.48
2022-11-09T20:15:45.568Z,18.47
2022-11-09T20:18:51.332Z,18.41
2022-11-09T20:21:58.183Z,18.40
2022-11-09T20:25:04.765Z,18.38
2022-11-09T20:28:10.467Z,18.39
2022-11-09T20:31:17.611Z,18.36
2022-11-09T20:34:23.762Z,18.27
2022-11-09T20:37:31.044Z,18.24
2022-11-09T20:40:36.413Z,18.18
2022-11-09T20:43:42.041Z,18.20
2022-11-09T20:46:47.754Z,18.19
2022-11-09T20:49:53.171Z,18.19
2022-11-09T20:53:00.585Z,18.16
2022-11-09T20:56:06.613Z,18.19
2022-11-09T20:59:12.156Z,18.22
2022-11-09T21:02:18.425Z,18.21
2022-11-09T21:05:24.252Z,18.18
2022-11-09T21:08:33.056Z,18.15
2022-11-09T21:12:00.498Z,18.13
2022-11-09T21:15:07.620Z,18.14
2022-11-09T21:18:13.532Z,18.09
2022-11-09T21:21:21.018Z,18.06
2022-11-09T21:24:45.828Z,18.04
2022-11-09T21:28:09.037Z,18.01
2022-11-09T21:31:15.432Z,17.98
2022-11-09T21:34:21.134Z,17.97
2022-11-09T21:37:26.669Z,17.96
2022-11-09T21:40:34.100Z,17.93
2022-11-09T21:43:39.792Z,17.90
2022-11-09T21:46:45.282Z,17.93
2022-11-09T21:49:50.597Z,17.92
2022-11-09T21:52:55.924Z,17.90
2022-11-09T21:56:02.797Z,17.83
2022-11-09T21:59:08.832Z,17.81
2022-11-09T22:02:14.358Z,17.80
2022-11-09T22:05:22.952Z,17.77
2022-11-09T22:08:29.129Z,17.69
2022-11-09T22:11:53.681Z,17.61
2022-11-09T22:15:17.068Z,17.58
2022-11-09T22:18:36.692Z,17.52
2022-11-09T22:21:43.017Z,17.49
2022-11-09T22:24:48.862Z,17.46
2022-11-09T22:27:56.834Z,17.48
2022-11-09T22:31:02.885Z,17.49
2022-11-09T22:34:15.687Z,17.48
2022-11-09T22:37:22.203Z,17.47
2022-11-09T22:40:27.724Z,17.49
2022-11-09T22:43:35.657Z,17.53
2022-11-09T22:46:41.386Z,17.55
2022-11-09T22:49:46.910Z,17.58
2022-11-09T22:52:54.133Z,17.59
2022-11-09T22:56:01.252Z,17.57
2022-11-09T22:59:08.886Z,17.59
2022-11-09T23:02:14.535Z,17.58
2022-11-09T23:05:20.096Z,17.55
2022-11-09T23:08:25.420Z,17.53
2022-11-09T23:11:30.858Z,17.51
2022-11-09T23:14:55.116Z,17.40
2022-11-09T23:18:19.070Z,17.41
2022-11-09T23:21:27.711Z,17.33
2022-11-09T23:24:50.629Z,17.33
2022-11-09T23:27:56.316Z,17.30
2022-11-09T23:31:06.257Z,17.26
2022-11-09T23:34:11.674Z,17.20
2022-11-09T23:37:17.131Z,17.20
2022-11-09T23:40:22.746Z,17.14
2022-11-09T23:43:28.530Z,17.11
2022-11-09T23:46:35.459Z,16.98
2022-11-09T23:49:41.504Z,16.99
2022-11-09T23:52:47.550Z,16.98
2022-11-09T23:55:53.079Z,16.91
2022-11-09T23:58:58.438Z,16.86
